Time;durP1;ratioP1;P1;durP2;ratioP2;P2;SDS_P1;SDS_P2;PMS_P1;PMS_P2;Temp;Humidity;BMP_temperature;BMP_pressure;BME280_temperature;BME280_humidity;BME280_pressure;Samples;Min_cycle;Max_cycle;Signal;HPM_P1;HPM_P2
2024/01/24 00:01:33;;;;;;;1.77;1.67;;;;;;;3.16;86.13;95901.72;4994318;28;20232;-68
2024/01/24 00:03:59;;;;;;;1.60;0.97;;;;;;;3.14;85.47;95908.03;5012542;28;20653;-68
2024/01/24 00:06:25;;;;;;;0.80;0.80;;;;;;;3.27;85.36;95909.38;5012576;28;20176;-68
2024/01/24 00:08:51;;;;;;;0.73;0.73;;;;;;;3.07;85.69;95894.75;5012417;28;20610;-68
2024/01/24 00:11:17;;;;;;;0.50;0.50;;;;;;;3.22;85.50;95926.34;5012433;28;20172;-68
2024/01/24 00:13:43;;;;;;;0.50;0.50;;;;;;;3.23;85.52;95920.19;5012338;28;20177;-68
2024/01/24 00:16:08;;;;;;;0.80;0.80;;;;;;;3.31;85.32;95926.34;5012182;28;20173;-68
2024/01/24 00:18:34;;;;;;;0.50;0.50;;;;;;;3.26;84.48;95931.16;5012089;28;20267;-68
2024/01/24 00:21:00;;;;;;;1.93;1.47;;;;;;;3.10;84.14;95904.88;5012072;28;20200;-68
2024/01/24 00:23:25;;;;;;;0.40;0.40;;;;;;;3.16;84.59;95927.75;5012201;28;20219;-68
2024/01/24 00:25:51;;;;;;;1.33;1.23;;;;;;;2.86;86.05;95931.31;5012146;28;20176;-68
2024/01/24 00:28:17;;;;;;;16.23;5.67;;;;;;;2.96;85.79;95929.53;5012016;28;20671;-68
2024/01/24 00:30:46;;;;;;;1.10;1.10;;;;;;;3.06;85.43;95941.69;5011979;28;20207;-68
2024/01/24 00:33:11;;;;;;;0.50;0.50;;;;;;;3.03;84.84;95917.59;5011860;28;20174;-68
2024/01/24 00:35:37;;;;;;;0.50;0.50;;;;;;;3.11;85.19;95937.75;5011990;28;20582;-68
2024/01/24 00:38:03;;;;;;;0.43;0.43;;;;;;;3.12;84.93;95930.75;5011856;28;20570;-68
2024/01/24 00:40:28;;;;;;;0.97;0.97;;;;;;;3.18;84.49;95940.63;5011850;28;20261;-68
2024/01/24 00:42:54;;;;;;;0.40;0.40;;;;;;;3.23;84.39;95941.00;5011952;28;20176;-68
2024/01/24 00:45:19;;;;;;;0.40;0.40;;;;;;;3.20;84.09;95944.69;5017478;28;20218;-68
2024/01/24 00:47:45;;;;;;;3.13;1.30;;;;;;;3.12;84.33;95941.97;5031303;28;20804;-68
2024/01/24 00:50:10;;;;;;;0.50;0.50;;;;;;;3.14;84.41;95944.44;5031817;28;20187;-67
2024/01/24 00:52:36;;;;;;;1.13;0.93;;;;;;;3.01;84.22;95942.13;5031516;28;20179;-67
2024/01/24 00:55:01;;;;;;;0.60;0.60;;;;;;;3.01;84.36;95950.75;5031447;28;20199;-68
2024/01/24 00:57:27;;;;;;;0.70;0.70;;;;;;;3.03;84.31;95953.19;5031527;28;20678;-68
2024/01/24 00:59:52;;;;;;;0.40;0.40;;;;;;;2.69;84.71;95902.56;5030267;28;20575;-67
2024/01/24 01:02:18;;;;;;;0.40;0.40;;;;;;;3.00;84.54;95943.09;5031307;28;20577;-67
2024/01/24 01:04:43;;;;;;;1.50;1.40;;;;;;;3.15;83.98;95939.09;5031254;28;20183;-67
2024/01/24 01:07:09;;;;;;;0.50;0.50;;;;;;;3.02;84.54;95938.56;5031040;28;20180;-67
2024/01/24 01:09:35;;;;;;;0.40;0.40;;;;;;;2.92;85.01;95935.16;5031058;28;20286;-67
2024/01/24 01:12:02;;;;;;;0.70;0.70;;;;;;;2.75;85.72;95928.84;5031265;28;20171;-67
2024/01/24 01:14:27;;;;;;;2.07;1.97;;;;;;;2.81;85.60;95920.50;5030958;28;20279;-67
2024/01/24 01:16:53;;;;;;;0.50;0.50;;;;;;;2.91;85.49;95933.50;5030977;28;20172;-68
2024/01/24 01:19:19;;;;;;;0.70;0.70;;;;;;;2.82;85.67;95923.94;5030832;28;20234;-68
2024/01/24 01:21:44;;;;;;;0.40;0.40;;;;;;;2.88;85.04;95920.78;5030865;28;20207;-68
2024/01/24 01:24:10;;;;;;;0.53;0.53;;;;;;;2.97;85.02;95928.56;5030949;28;20226;-68
2024/01/24 01:26:35;;;;;;;0.40;0.40;;;;;;;2.89;85.05;95922.41;5030845;28;20179;-68
2024/01/24 01:29:02;;;;;;;0.50;0.50;;;;;;;2.82;85.45;95927.34;5030991;28;20644;-68
2024/01/24 01:31:27;;;;;;;0.90;0.90;;;;;;;2.86;85.48;95923.50;5030861;28;20950;-68
2024/01/24 01:33:53;;;;;;;0.50;0.50;;;;;;;2.78;85.44;95925.16;5030618;28;20178;-67
2024/01/24 01:36:19;;;;;;;0.93;0.93;;;;;;;2.70;85.67;95915.44;5012925;28;20601;-68
2024/01/24 01:38:45;;;;;;;0.40;0.40;;;;;;;2.84;85.23;95924.63;5030663;28;20172;-68
2024/01/24 01:41:10;;;;;;;0.40;0.40;;;;;;;2.69;85.28;95908.59;5030477;28;20200;-68
2024/01/24 01:43:35;;;;;;;0.67;0.67;;;;;;;2.81;85.83;95935.28;5030455;28;20245;-68
2024/01/24 01:46:06;;;;;;;1.37;1.27;;;;;;;2.61;85.87;95930.06;5030210;28;20190;-68
2024/01/24 01:48:33;;;;;;;23.67;3.60;;;;;;;2.78;86.43;95925.97;5012647;28;20559;-67
2024/01/24 01:50:58;;;;;;;0.43;0.43;;;;;;;2.93;85.97;95921.19;5030321;28;20615;-68
2024/01/24 01:53:24;;;;;;;0.40;0.40;;;;;;;2.92;85.02;95909.16;5030326;28;20256;-68
2024/01/24 01:55:50;;;;;;;0.40;0.40;;;;;;;2.97;84.40;95906.94;5030363;28;20190;-68
2024/01/24 01:58:16;;;;;;;0.40;0.40;;;;;;;3.00;84.16;95901.47;5030270;28;20172;-68
2024/01/24 02:00:45;;;;;;;0.40;0.40;;;;;;;2.92;83.75;95894.38;5030076;28;20198;-68
2024/01/24 02:03:11;;;;;;;0.40;0.40;;;;;;;2.94;84.07;95902.03;5030180;28;20175;-68
2024/01/24 02:05:38;;;;;;;0.40;0.40;;;;;;;2.82;84.02;95903.94;5030215;28;20176;-68
2024/01/24 02:08:04;;;;;;;0.40;0.40;;;;;;;2.75;83.97;95902.03;5030202;28;20196;-68
2024/01/24 02:10:30;;;;;;;0.50;0.50;;;;;;;2.71;83.89;95904.06;5009036;28;20267;-68
2024/01/24 02:12:55;;;;;;;0.40;0.40;;;;;;;2.63;83.69;95909.97;4992647;28;20268;-68
2024/01/24 02:15:21;;;;;;;0.50;0.50;;;;;;;2.39;83.61;95874.94;5010300;28;20632;-68
2024/01/24 02:17:47;;;;;;;0.50;0.50;;;;;;;2.52;83.74;95899.69;5010280;28;20172;-68
2024/01/24 02:20:13;;;;;;;0.40;0.40;;;;;;;2.47;83.51;95903.66;5010228;28;20692;-68
2024/01/24 02:22:38;;;;;;;0.33;0.33;;;;;;;2.42;83.84;95896.25;5010276;28;20192;-68
2024/01/24 02:25:05;;;;;;;0.40;0.40;;;;;;;2.47;83.53;95893.25;5010276;28;20563;-68
2024/01/24 02:27:30;;;;;;;0.40;0.40;;;;;;;2.39;83.46;95901.75;5010278;28;20179;-68
2024/01/24 02:29:59;;;;;;;0.47;0.47;;;;;;;2.41;84.11;95897.22;5010194;28;20177;-67
2024/01/24 02:32:26;;;;;;;0.40;0.40;;;;;;;2.40;83.57;95894.75;5009994;28;20207;-68
2024/01/24 02:34:51;;;;;;;0.50;0.50;;;;;;;2.35;83.90;95873.56;5010123;28;20567;-68
2024/01/24 02:37:19;;;;;;;0.40;0.40;;;;;;;2.44;84.06;95893.53;5010175;28;20173;-68
2024/01/24 02:39:46;;;;;;;0.40;0.40;;;;;;;2.35;83.43;95889.13;5010050;28;20636;-68
2024/01/24 02:42:11;;;;;;;0.50;0.50;;;;;;;2.41;83.76;95888.63;5010038;28;20206;-68
2024/01/24 02:44:37;;;;;;;0.70;0.70;;;;;;;2.39;83.92;95898.31;5010246;28;20204;-68
2024/01/24 02:47:02;;;;;;;0.50;0.50;;;;;;;2.32;83.71;95889.44;5009772;28;20231;-68
2024/01/24 02:49:28;;;;;;;0.30;0.30;;;;;;;2.21;84.55;95885.97;5009984;28;20192;-68
2024/01/24 02:51:53;;;;;;;0.57;0.57;;;;;;;2.21;84.98;95898.16;5009868;28;20187;-68
2024/01/24 02:54:19;;;;;;;2.20;2.10;;;;;;;2.19;84.88;95892.25;5009946;28;20645;-68
2024/01/24 02:56:44;;;;;;;0.50;0.50;;;;;;;2.20;85.10;95888.72;5009843;28;20204;-68
2024/01/24 02:59:10;;;;;;;0.60;0.60;;;;;;;2.20;84.78;95894.72;5009892;28;20180;-68
2024/01/24 03:01:35;;;;;;;0.40;0.40;;;;;;;2.12;84.28;95876.41;5009711;28;20201;-68
2024/01/24 03:04:01;;;;;;;0.40;0.40;;;;;;;2.30;84.30;95893.94;5009839;28;20360;-68
2024/01/24 03:06:26;;;;;;;2.17;2.10;;;;;;;2.37;83.93;95893.25;5009896;28;20212;-68
2024/01/24 03:08:57;;;;;;;0.50;0.50;;;;;;;2.25;84.68;95889.94;5009868;28;20183;-68
2024/01/24 03:11:23;;;;;;;0.40;0.40;;;;;;;2.14;84.95;95891.84;5009794;28;20254;-68
2024/01/24 03:13:49;;;;;;;0.40;0.40;;;;;;;2.09;85.23;95892.22;5009640;28;20559;-68
2024/01/24 03:16:14;;;;;;;0.53;0.53;;;;;;;2.11;84.92;95885.13;5009794;28;20177;-68
2024/01/24 03:18:40;;;;;;;0.77;0.77;;;;;;;2.11;84.80;95884.31;5009622;28;20177;-68
2024/01/24 03:21:07;;;;;;;0.60;0.60;;;;;;;2.11;84.72;95876.53;5009548;28;20291;-68
2024/01/24 03:23:33;;;;;;;0.50;0.50;;;;;;;1.99;84.07;95856.84;5011035;28;20181;-68
2024/01/24 03:25:58;;;;;;;0.40;0.40;;;;;;;1.98;84.07;95863.81;5013352;28;20649;-68
2024/01/24 03:28:24;;;;;;;0.70;0.70;;;;;;;1.98;84.06;95871.59;5013359;28;20672;-68
2024/01/24 03:30:49;;;;;;;0.40;0.40;;;;;;;1.99;83.81;95864.63;5013424;28;20173;-68
2024/01/24 03:33:15;;;;;;;0.40;0.40;;;;;;;2.02;84.26;95882.50;5013292;28;20951;-68
2024/01/24 03:35:40;;;;;;;0.40;0.40;;;;;;;1.86;84.37;95883.84;5013135;28;20255;-68
2024/01/24 03:38:06;;;;;;;0.50;0.50;;;;;;;1.84;84.42;95882.31;5013180;28;20179;-68
2024/01/24 03:40:32;;;;;;;0.33;0.33;;;;;;;1.77;84.21;95889.00;5012961;28;20200;-68
2024/01/24 03:42:58;;;;;;;0.40;0.40;;;;;;;1.64;84.69;95878.03;5013032;28;20169;-68
2024/01/24 03:45:23;;;;;;;0.60;0.60;;;;;;;1.64;85.08;95891.03;5012964;28;20181;-68
2024/01/24 03:47:49;;;;;;;0.43;0.43;;;;;;;1.64;85.25;95888.41;5012747;28;20223;-68
2024/01/24 03:50:15;;;;;;;0.50;0.50;;;;;;;1.69;85.12;95891.44;5012905;28;20188;-68
2024/01/24 03:52:40;;;;;;;0.63;0.63;;;;;;;1.67;84.54;95880.34;5012825;28;20238;-68
2024/01/24 03:55:06;;;;;;;0.40;0.40;;;;;;;1.69;85.21;95879.28;5012815;28;20186;-68
2024/01/24 03:57:32;;;;;;;3.73;2.07;;;;;;;1.47;85.80;95856.13;5012635;28;20200;-68
2024/01/24 03:59:57;;;;;;;1.70;1.60;;;;;;;1.76;85.63;95870.00;5012663;28;20645;-68
2024/01/24 04:02:22;;;;;;;0.40;0.40;;;;;;;1.87;85.42;95872.53;5012636;28;20192;-68
2024/01/24 04:04:48;;;;;;;0.40;0.40;;;;;;;1.89;84.57;95882.78;5012593;28;20173;-68
2024/01/24 04:07:13;;;;;;;0.50;0.50;;;;;;;1.80;84.65;95866.22;5012714;28;20226;-68
2024/01/24 04:09:39;;;;;;;0.40;0.40;;;;;;;1.93;84.78;95894.53;5012687;28;20974;-68
2024/01/24 04:12:05;;;;;;;0.40;0.40;;;;;;;1.89;84.29;95893.16;5011872;28;20176;-68
2024/01/24 04:14:30;;;;;;;0.47;0.47;;;;;;;1.87;83.96;95910.63;5012338;28;20287;-68
2024/01/24 04:16:56;;;;;;;2.30;2.20;;;;;;;1.79;84.05;95911.28;5011798;28;20172;-68
2024/01/24 04:19:21;;;;;;;0.53;0.53;;;;;;;1.67;84.46;95899.34;5012316;28;20180;-68
2024/01/24 04:21:47;;;;;;;8.23;2.00;;;;;;;1.49;84.23;95888.75;5012281;28;20200;-69
2024/01/24 04:24:12;;;;;;;0.70;0.70;;;;;;;1.71;84.45;95916.31;5012302;28;20177;-68
2024/01/24 04:26:38;;;;;;;0.50;0.50;;;;;;;1.76;83.84;95923.69;4994826;28;20270;-68
2024/01/24 04:29:04;;;;;;;0.50;0.50;;;;;;;1.68;84.41;95923.53;5012145;28;20542;-68
2024/01/24 04:31:29;;;;;;;0.70;0.70;;;;;;;1.77;83.94;95922.75;4994403;28;20259;-68
2024/01/24 04:33:55;;;;;;;1.93;1.83;;;;;;;1.40;85.73;95923.25;5011901;28;20183;-68
2024/01/24 04:36:20;;;;;;;0.53;0.53;;;;;;;1.41;85.71;95918.88;5012040;28;20668;-68
2024/01/24 04:38:46;;;;;;;0.57;0.57;;;;;;;1.42;85.57;95921.34;5018127;28;20179;-68
2024/01/24 04:41:11;;;;;;;0.90;0.90;;;;;;;1.51;85.14;95924.94;5011879;28;20270;-68
2024/01/24 04:43:39;;;;;;;0.50;0.50;;;;;;;1.62;85.33;95911.06;5012049;28;20271;-68
2024/01/24 04:46:14;;;;;;;0.63;0.63;;;;;;;1.68;85.04;95923.53;5011790;28;20238;-69
2024/01/24 04:48:44;;;;;;;0.90;0.90;;;;;;;1.59;84.65;95900.94;5008891;28;20180;-69
2024/01/24 04:51:11;;;;;;;0.90;0.90;;;;;;;1.69;85.40;95926.00;5011692;28;20192;-69
2024/01/24 04:53:36;;;;;;;0.70;0.70;;;;;;;1.76;84.80;95929.72;5011174;28;20176;-67
2024/01/24 04:56:02;;;;;;;0.40;0.40;;;;;;;1.54;85.34;95911.72;5011669;28;20184;-67
2024/01/24 04:58:28;;;;;;;0.50;0.50;;;;;;;1.72;84.74;95936.13;5011561;28;20172;-68
2024/01/24 05:00:53;;;;;;;0.37;0.37;;;;;;;1.79;85.00;95942.44;5011449;28;20208;-68
2024/01/24 05:03:19;;;;;;;0.53;0.53;;;;;;;1.79;85.03;95939.84;5011403;28;20166;-67
2024/01/24 05:05:44;;;;;;;0.57;0.57;;;;;;;1.82;85.14;95936.97;5011441;28;20215;-70
2024/01/24 05:08:10;;;;;;;0.50;0.50;;;;;;;1.85;84.75;95959.25;5011323;28;20176;-70
2024/01/24 05:10:35;;;;;;;0.40;0.40;;;;;;;1.73;84.79;95957.72;5011374;28;20191;-69
2024/01/24 05:13:01;;;;;;;0.50;0.50;;;;;;;1.79;85.02;95957.19;5011675;28;21001;-68
2024/01/24 05:15:26;;;;;;;0.87;0.87;;;;;;;1.84;84.36;95957.59;5011199;28;20169;-68
2024/01/24 05:17:52;;;;;;;0.40;0.40;;;;;;;1.75;84.37;95956.59;5011283;28;20172;-68
2024/01/24 05:20:17;;;;;;;0.50;0.50;;;;;;;1.75;84.57;95964.41;5011063;28;20196;-68
2024/01/24 05:22:43;;;;;;;0.40;0.40;;;;;;;1.74;84.81;95962.75;5011143;28;20176;-68
2024/01/24 05:25:09;;;;;;;0.40;0.40;;;;;;;1.62;84.64;95969.00;5010967;28;20196;-68
2024/01/24 05:27:35;;;;;;;0.80;0.80;;;;;;;1.72;83.78;95969.03;5010966;28;20168;-68
2024/01/24 05:30:01;;;;;;;0.40;0.40;;;;;;;1.56;84.08;95973.88;5010959;28;20653;-68
2024/01/24 05:32:27;;;;;;;0.50;0.50;;;;;;;1.51;84.84;95966.44;5011006;28;20184;-68
2024/01/24 05:34:53;;;;;;;0.67;0.67;;;;;;;1.51;84.58;95959.50;5010890;28;20179;-68
2024/01/24 05:37:18;;;;;;;0.40;0.40;;;;;;;1.52;85.08;95955.97;5009577;28;20176;-68
2024/01/24 05:39:44;;;;;;;0.60;0.60;;;;;;;1.49;85.52;95965.75;5010734;28;20177;-68
2024/01/24 05:42:09;;;;;;;0.40;0.40;;;;;;;1.60;85.28;95955.31;5010825;28;20180;-68
2024/01/24 05:44:35;;;;;;;1.10;1.10;;;;;;;1.57;84.88;95965.94;5010770;28;20172;-68
2024/01/24 05:47:00;;;;;;;1.53;1.53;;;;;;;1.64;84.61;95961.91;5009896;28;20267;-68
2024/01/24 05:49:26;;;;;;;1.07;1.07;;;;;;;1.76;84.42;95963.44;5010872;28;20185;-67
2024/01/24 05:51:52;;;;;;;0.73;0.73;;;;;;;1.74;84.15;95962.75;5010836;28;20173;-68
2024/01/24 05:54:17;;;;;;;0.83;0.83;;;;;;;1.71;85.12;95957.84;5010560;28;20172;-68
2024/01/24 05:56:42;;;;;;;0.50;0.50;;;;;;;1.75;85.05;95964.41;5009798;28;20187;-68
2024/01/24 05:59:09;;;;;;;0.60;0.60;;;;;;;1.86;84.17;95959.13;5010617;28;20191;-68
2024/01/24 06:01:34;;;;;;;0.70;0.70;;;;;;;1.79;84.42;95955.41;4999368;28;20201;-69
2024/01/24 06:04:00;;;;;;;1.20;1.17;;;;;;;1.82;84.70;95962.09;4990909;28;20231;-69
2024/01/24 06:06:25;;;;;;;2.40;2.30;;;;;;;1.93;84.81;95964.63;4990815;28;20713;-68
2024/01/24 06:08:51;;;;;;;1.07;1.07;;;;;;;1.89;84.30;95966.66;4990693;28;20169;-68
2024/01/24 06:11:17;;;;;;;3.63;3.47;;;;;;;1.97;84.33;95967.78;4990810;28;20638;-68
2024/01/24 06:13:43;;;;;;;0.50;0.50;;;;;;;1.92;84.10;95965.56;4990628;28;20223;-69
2024/01/24 06:16:08;;;;;;;3.17;3.00;;;;;;;2.01;84.00;95963.94;4973117;28;20600;-68
2024/01/24 06:18:33;;;;;;;0.80;0.80;;;;;;;1.96;84.12;95961.75;4990538;28;20181;-69
2024/01/24 06:20:59;;;;;;;0.63;0.63;;;;;;;1.85;83.36;95960.06;4990526;28;20224;-69
2024/01/24 06:23:25;;;;;;;17.77;16.43;;;;;;;1.88;83.73;95952.03;4990455;28;20177;-70
2024/01/24 06:25:50;;;;;;;0.50;0.50;;;;;;;1.80;84.00;95957.06;4990580;28;20176;-70
2024/01/24 06:28:15;;;;;;;0.97;0.97;;;;;;;1.78;84.62;95953.75;4990749;28;20246;-70
2024/01/24 06:30:41;;;;;;;0.50;0.50;;;;;;;1.87;84.92;95952.97;4995901;28;20172;-69
2024/01/24 06:33:07;;;;;;;1.37;1.33;;;;;;;2.02;84.39;95940.47;5010154;28;20180;-68
2024/01/24 06:35:32;;;;;;;0.50;0.50;;;;;;;2.11;84.32;95942.28;5010081;28;20164;-69
2024/01/24 06:37:58;;;;;;;3.10;1.93;;;;;;;2.21;84.84;95943.13;5009989;28;20195;-69
2024/01/24 06:40:24;;;;;;;0.47;0.47;;;;;;;2.31;83.79;95926.75;5009946;28;20208;-69
2024/01/24 06:42:50;;;;;;;0.40;0.40;;;;;;;2.51;83.00;95926.63;5009031;28;20179;-69
2024/01/24 06:45:16;;;;;;;0.93;0.93;;;;;;;2.62;82.72;95946.47;5009992;28;20180;-69
2024/01/24 06:47:43;;;;;;;0.40;0.40;;;;;;;2.79;82.29;95939.78;5009824;28;20724;-69
2024/01/24 06:50:12;;;;;;;1.93;1.83;;;;;;;2.86;81.52;95946.06;5009971;28;20719;-69
2024/01/24 06:52:37;;;;;;;0.60;0.60;;;;;;;3.87;79.97;95942.91;5009805;28;20653;-69
2024/01/24 06:55:03;;;;;;;3.33;3.13;;;;;;;5.15;75.40;95949.69;5009824;28;20172;-70
2024/01/24 06:57:29;;;;;;;2.17;2.07;;;;;;;6.41;69.86;95947.38;5011198;28;20184;-69
2024/01/24 06:59:55;;;;;;;3.03;2.30;;;;;;;7.56;65.38;95957.88;5013439;28;20187;-69
2024/01/24 07:02:21;;;;;;;0.60;0.60;;;;;;;7.67;63.99;95956.72;5013460;28;20684;-69
2024/01/24 07:04:46;;;;;;;0.50;0.50;;;;;;;7.94;63.71;95951.94;5013427;28;20176;-69
2024/01/24 07:07:12;;;;;;;0.40;0.40;;;;;;;8.02;62.97;95960.75;5012417;28;20176;-70
2024/01/24 07:09:37;;;;;;;0.40;0.40;;;;;;;8.10;62.14;95952.88;5013588;28;20168;-69
2024/01/24 07:12:04;;;;;;;2.10;2.00;;;;;;;9.14;59.98;95948.16;5013299;28;20176;-70
2024/01/24 07:14:29;;;;;;;0.60;0.60;;;;;;;9.80;58.09;95965.03;5013588;28;20238;-69
2024/01/24 07:16:55;;;;;;;0.67;0.67;;;;;;;10.31;56.17;95966.00;5013841;28;20168;-70
2024/01/24 07:19:20;;;;;;;0.70;0.70;;;;;;;10.58;54.45;95954.03;5012979;28;20535;-69
2024/01/24 07:21:47;;;;;;;3.33;3.13;;;;;;;10.72;54.09;95958.47;5012514;28;20235;-70
2024/01/24 07:24:12;;;;;;;1.03;1.03;;;;;;;10.65;55.00;95954.91;5012923;28;20473;-70
2024/01/24 07:26:38;;;;;;;0.80;0.80;;;;;;;11.51;52.28;95966.38;5013328;28;20229;-70
2024/01/24 07:29:03;;;;;;;2.23;2.03;;;;;;;10.98;51.78;95956.13;5013358;28;20168;-70
2024/01/24 07:31:29;;;;;;;0.67;0.67;;;;;;;11.58;51.76;95957.56;5013333;28;20195;-71
2024/01/24 07:33:54;;;;;;;1.70;1.67;;;;;;;12.48;49.55;95960.25;4995769;28;20176;-70
2024/01/24 07:36:22;;;;;;;1.30;1.30;;;;;;;13.64;46.68;95965.53;4995651;28;20207;-70
2024/01/24 07:38:48;;;;;;;1.05;1.05;;;;;;;15.12;43.02;95962.22;5013029;28;20172;-71
2024/01/24 07:41:14;;;;;;;0.60;0.60;;;;;;;15.58;41.62;95959.31;5012914;28;20199;-70
2024/01/24 07:43:40;;;;;;;2.10;1.20;;;;;;;16.47;39.70;95972.28;5013022;28;20169;-71
2024/01/24 07:46:06;;;;;;;0.50;0.50;;;;;;;17.02;38.13;95973.16;5012849;28;20204;-70
2024/01/24 07:48:31;;;;;;;0.47;0.47;;;;;;;16.88;37.96;95956.50;5011735;28;20219;-69
2024/01/24 07:50:57;;;;;;;0.63;0.63;;;;;;;16.44;37.94;95967.41;5008750;28;20181;-69
2024/01/24 07:53:23;;;;;;;1.85;1.48;;;;;;;16.43;37.67;95955.94;5012009;28;20172;-69
2024/01/24 07:55:49;;;;;;;0.80;0.80;;;;;;;17.11;36.52;95968.34;5011025;28;20622;-70
2024/01/24 07:58:14;;;;;;;0.40;0.40;;;;;;;17.83;35.73;95977.19;5011844;28;20212;-70
2024/01/24 08:00:40;;;;;;;0.40;0.40;;;;;;;18.31;34.30;95985.03;5011805;28;20291;-70
2024/01/24 08:03:07;;;;;;;0.60;0.60;;;;;;;18.71;33.24;95983.31;5010524;28;20196;-71
2024/01/24 08:05:33;;;;;;;2.15;1.52;;;;;;;18.86;32.40;95969.47;5011497;28;20233;-70
2024/01/24 08:07:59;;;;;;;0.60;0.60;;;;;;;19.17;31.67;95977.09;5011409;28;20168;-70
2024/01/24 08:10:24;;;;;;;1.27;1.23;;;;;;;18.85;31.89;95966.00;5010173;28;20199;-70
2024/01/24 08:12:50;;;;;;;1.10;1.08;;;;;;;17.92;32.25;95984.63;5011625;28;20226;-70
2024/01/24 08:15:16;;;;;;;0.80;0.80;;;;;;;18.66;32.55;95985.06;5011283;28;20267;-70
2024/01/24 08:17:42;;;;;;;0.80;0.80;;;;;;;18.92;31.69;95986.44;5010659;28;20587;-70
2024/01/24 08:20:08;;;;;;;0.68;0.68;;;;;;;17.90;33.85;95980.59;5011038;28;20176;-70
2024/01/24 08:22:34;;;;;;;0.80;0.80;;;;;;;17.26;34.06;95984.72;5008528;28;20187;-70
2024/01/24 08:25:00;;;;;;;0.90;0.90;;;;;;;16.69;34.90;95978.81;5008610;28;20278;-69
2024/01/24 08:27:26;;;;;;;0.43;0.43;;;;;;;16.55;35.77;95983.44;4990808;28;20184;-70
2024/01/24 08:29:52;;;;;;;0.75;0.75;;;;;;;15.33;38.75;95989.25;4989423;28;20188;-69
2024/01/24 08:32:18;;;;;;;2.00;0.70;;;;;;;14.67;38.79;95973.63;5010741;28;20665;-69
2024/01/24 08:34:43;;;;;;;0.50;0.50;;;;;;;14.62;39.21;95975.25;5010669;28;20218;-69
2024/01/24 08:37:09;;;;;;;0.40;0.40;;;;;;;14.07;40.45;95980.00;5010317;28;20234;-69
2024/01/24 08:39:35;;;;;;;1.20;1.20;;;;;;;13.93;41.16;95978.34;4993498;28;20234;-68
2024/01/24 08:42:04;;;;;;;0.40;0.40;;;;;;;13.56;42.42;95964.72;5010854;28;20208;-69
2024/01/24 08:44:30;;;;;;;0.50;0.50;;;;;;;13.13;42.45;95951.00;5009594;28;20180;-70
2024/01/24 08:46:55;;;;;;;4.23;0.90;;;;;;;13.17;42.59;95975.19;5010131;28;20232;-69
2024/01/24 08:49:21;;;;;;;0.50;0.50;;;;;;;12.94;43.76;95966.75;5009451;28;20551;-69
2024/01/24 08:51:46;;;;;;;0.70;0.70;;;;;;;12.90;43.32;95965.50;5010519;28;20173;-70
2024/01/24 08:54:13;;;;;;;0.40;0.40;;;;;;;12.73;44.57;95960.56;4992646;28;20893;-69
2024/01/24 08:56:39;;;;;;;0.40;0.40;;;;;;;12.92;43.82;95963.47;5010223;28;20665;-70
2024/01/24 08:59:04;;;;;;;0.70;0.70;;;;;;;13.20;42.98;95957.09;5009884;28;20204;-69
2024/01/24 09:01:30;;;;;;;0.80;0.80;;;;;;;12.78;44.42;95968.72;5010909;28;20188;-69
2024/01/24 09:03:56;;;;;;;1.03;1.03;;;;;;;12.85;44.16;95974.84;5002829;28;20632;-68
2024/01/24 09:06:22;;;;;;;0.40;0.40;;;;;;;12.84;43.81;95967.13;5006927;28;20650;-68
2024/01/24 09:08:52;;;;;;;0.63;0.63;;;;;;;12.49;44.31;95976.91;5011177;28;20675;-68
2024/01/24 09:11:18;;;;;;;1.43;1.33;;;;;;;11.93;45.50;95976.94;5011115;28;20169;-68
2024/01/24 09:13:46;;;;;;;0.77;0.77;;;;;;;11.82;46.63;95974.81;4993747;28;20204;-67
2024/01/24 09:16:11;;;;;;;1.13;1.13;;;;;;;11.56;47.95;95975.38;5010966;28;20176;-68
2024/01/24 09:18:38;;;;;;;0.50;0.50;;;;;;;11.89;46.53;95967.78;5010918;28;20164;-68
2024/01/24 09:21:03;;;;;;;0.40;0.40;;;;;;;11.89;46.58;95970.41;5009616;28;20258;-68
2024/01/24 09:23:29;;;;;;;9.30;1.53;;;;;;;11.94;46.51;95965.38;5010936;28;20168;-68
2024/01/24 09:25:55;;;;;;;55.00;2.77;;;;;;;11.92;45.96;95962.13;5010865;28;20172;-68
2024/01/24 09:28:20;;;;;;;0.50;0.50;;;;;;;11.45;47.14;95957.41;5010834;28;20714;-68
2024/01/24 09:30:46;;;;;;;1.70;1.43;;;;;;;11.41;47.77;95939.53;5010742;28;20599;-68
2024/01/24 09:33:11;;;;;;;2.90;2.53;;;;;;;11.38;46.90;95959.19;5010786;28;20172;-68
2024/01/24 09:35:37;;;;;;;1.03;1.00;;;;;;;11.15;47.82;95929.56;5010586;28;20179;-68
2024/01/24 09:38:04;;;;;;;0.90;0.90;;;;;;;11.58;47.77;95949.63;5010617;28;20271;-68
2024/01/24 09:40:30;;;;;;;0.40;0.40;;;;;;;11.39;47.25;95929.19;5010333;28;20262;-68
2024/01/24 09:43:00;;;;;;;0.70;0.70;;;;;;;11.35;47.87;95927.91;5010356;28;20657;-68
2024/01/24 09:45:28;;;;;;;0.40;0.40;;;;;;;11.33;47.64;95919.38;5010415;28;20177;-68
2024/01/24 09:47:57;;;;;;;1.27;1.27;;;;;;;11.12;47.58;95917.56;5010066;28;20259;-69
2024/01/24 09:50:23;;;;;;;1.07;1.07;;;;;;;11.06;47.67;95917.50;5010377;28;20168;-68
2024/01/24 09:52:50;;;;;;;2.20;0.97;;;;;;;10.77;48.56;95923.66;4992363;28;20172;-69
2024/01/24 09:55:18;;;;;;;1.33;1.33;;;;;;;10.65;48.38;95896.97;5010054;28;20202;-68
2024/01/24 09:57:46;;;;;;;0.40;0.40;;;;;;;10.57;49.50;95905.81;5008873;28;20168;-68
2024/01/24 10:00:14;;;;;;;2.70;2.13;;;;;;;10.61;49.24;95910.72;5009135;28;20176;-69
2024/01/24 10:02:43;;;;;;;1.17;1.17;;;;;;;10.48;49.77;95909.53;5009154;28;20211;-68
2024/01/24 10:05:13;;;;;;;0.50;0.50;;;;;;;10.17;50.58;95904.50;4992180;28;20585;-68
2024/01/24 10:07:40;;;;;;;0.40;0.40;;;;;;;9.88;51.47;95904.47;5010074;28;20541;-68
2024/01/24 10:10:17;;;;;;;5.23;4.80;;;;;;;9.34;51.74;95877.56;4992021;28;20178;-68
2024/01/24 10:12:43;;;;;;;0.50;0.50;;;;;;;9.15;53.77;95893.81;5010253;28;20164;-68
2024/01/24 10:15:10;;;;;;;1.13;0.90;;;;;;;9.27;52.88;95900.25;5009869;28;20173;-68
2024/01/24 10:17:40;;;;;;;8.30;1.33;;;;;;;9.19;52.84;95895.06;5009984;28;20175;-68
2024/01/24 10:20:11;;;;;;;0.60;0.60;;;;;;;9.15;53.80;95884.13;5009822;28;20168;-68
2024/01/24 10:22:38;;;;;;;1.13;1.13;;;;;;;9.24;53.58;95884.88;5009906;28;20671;-68
2024/01/24 10:25:04;;;;;;;0.70;0.70;;;;;;;9.14;53.63;95863.28;4992095;28;20540;-69
2024/01/24 10:27:33;;;;;;;0.30;0.30;;;;;;;9.00;53.96;95867.47;5009812;28;20179;-68
2024/01/24 10:29:59;;;;;;;0.50;0.50;;;;;;;9.22;54.07;95881.59;5009819;28;20653;-69
2024/01/24 10:32:24;;;;;;;0.40;0.40;;;;;;;9.32;53.87;95869.84;5009511;28;20252;-69
2024/01/24 10:34:50;;;;;;;1.03;1.03;;;;;;;8.63;56.00;95868.25;5009663;28;20208;-67
2024/01/24 10:37:18;;;;;;;0.77;0.77;;;;;;;8.57;56.77;95856.59;5009626;28;20679;-69
2024/01/24 10:39:44;;;;;;;0.87;0.87;;;;;;;8.68;56.66;95858.84;5009745;28;20172;-69
2024/01/24 10:42:12;;;;;;;0.50;0.50;;;;;;;8.86;56.42;95861.19;5009480;28;20217;-69
2024/01/24 10:44:42;;;;;;;2.63;1.23;;;;;;;8.96;54.96;95855.69;5009581;28;20187;-68
2024/01/24 10:47:09;;;;;;;1.27;1.27;;;;;;;9.01;55.32;95846.28;5009394;28;20231;-69
2024/01/24 10:49:36;;;;;;;0.50;0.50;;;;;;;8.67;55.58;95820.44;5009613;28;20172;-68
2024/01/24 10:52:02;;;;;;;5.67;5.33;;;;;;;8.49;56.21;95817.28;5009483;28;20196;-68
2024/01/24 10:54:30;;;;;;;0.30;0.30;;;;;;;8.43;56.97;95835.53;4991932;28;20211;-68
2024/01/24 10:56:59;;;;;;;0.90;0.90;;;;;;;8.00;57.66;95829.84;5009630;28;20677;-68
2024/01/24 10:59:28;;;;;;;0.70;0.70;;;;;;;7.76;58.74;95822.88;5009463;28;20702;-68
2024/01/24 11:01:54;;;;;;;2.63;1.20;;;;;;;7.70;60.22;95825.34;5009281;28;20200;-68
2024/01/24 11:04:21;;;;;;;0.60;0.60;;;;;;;7.83;59.13;95808.13;5009457;28;20172;-68
2024/01/24 11:07:03;;;;;;;1.40;1.33;;;;;;;8.00;58.76;95808.03;5009393;28;20646;-68
2024/01/24 11:09:53;;;;;;;0.47;0.47;;;;;;;8.11;58.68;95807.66;5009588;28;20168;-69
2024/01/24 11:12:20;;;;;;;0.43;0.43;;;;;;;8.00;58.24;95808.03;5009304;28;20179;-68
2024/01/24 11:14:49;;;;;;;0.80;0.80;;;;;;;7.68;59.04;95806.38;5009260;28;20256;-68
2024/01/24 11:17:15;;;;;;;0.40;0.40;;;;;;;7.73;60.04;95815.34;4992326;28;20204;-68
2024/01/24 11:19:40;;;;;;;0.40;0.40;;;;;;;7.72;60.16;95805.03;5009128;28;20207;-69
2024/01/24 11:22:10;;;;;;;3.23;2.93;;;;;;;7.81;58.75;95801.41;5009056;28;20651;-68
2024/01/24 11:24:44;;;;;;;0.40;0.40;;;;;;;7.91;58.83;95809.88;5009017;28;20566;-68
2024/01/24 11:27:35;;;;;;;2.57;2.40;;;;;;;7.83;59.19;95792.38;4991723;28;20186;-68
2024/01/24 11:30:06;;;;;;;3.00;1.77;;;;;;;7.40;60.07;95795.47;5009078;28;20184;-68
2024/01/24 11:32:44;;;;;;;1.17;1.13;;;;;;;7.59;60.38;95797.72;5009064;28;20180;-68
2024/01/24 11:35:24;;;;;;;0.63;0.63;;;;;;;7.63;59.98;95800.81;5008994;28;20168;-68